Time;durP1;ratioP1;P1;durP2;ratioP2;P2;SDS_P1;SDS_P2;PMS_P1;PMS_P2;Temp;Humidity;BMP_temperature;BMP_pressure;BME280_temperature;BME280_humidity;BME280_pressure;Samples;Min_cycle;Max_cycle;Signal;HPM_P1;HPM_P2
2023/10/01 00:02:41;;;;;;;12.10;6.30;;;10.90;99.90;;;;;;7300198;32;20249;-55
2023/10/01 00:06:42;;;;;;;14.05;6.90;;;10.90;99.90;;;;;;7303597;32;20222;-54
2023/10/01 00:10:44;;;;;;;11.60;6.93;;;11.00;99.90;;;;;;7302081;32;20538;-56
2023/10/01 00:14:46;;;;;;;13.43;6.93;;;11.10;99.90;;;;;;7302723;32;20108;-54
2023/10/01 00:18:48;;;;;;;10.48;7.15;;;11.20;99.90;;;;;;7303305;32;20132;-55
2023/10/01 00:22:59;;;;;;;10.02;6.82;;;11.30;99.90;;;;;;7304515;32;20715;-56
2023/10/01 00:27:01;;;;;;;12.77;6.90;;;11.40;99.90;;;;;;7302807;32;20124;-55
2023/10/01 00:31:03;;;;;;;9.80;6.93;;;11.50;99.90;;;;;;7303388;32;20277;-54
2023/10/01 00:35:06;;;;;;;11.60;6.95;;;11.60;99.90;;;;;;7302830;32;20222;-54
2023/10/01 00:39:08;;;;;;;12.68;7.20;;;11.50;99.90;;;;;;7302483;32;20575;-56
2023/10/01 00:43:12;;;;;;;11.27;7.72;;;11.50;99.90;;;;;;7296299;32;20149;-56
2023/10/01 00:47:14;;;;;;;10.68;7.30;;;11.60;99.90;;;;;;7300536;32;20235;-56
2023/10/01 00:51:19;;;;;;;11.88;8.27;;;11.60;99.90;;;;;;7301396;32;20303;-56
2023/10/01 00:55:20;;;;;;;11.52;7.70;;;11.60;99.90;;;;;;7298256;32;20241;-56
2023/10/01 00:59:23;;;;;;;12.77;7.82;;;11.70;99.90;;;;;;7298323;32;20209;-58
2023/10/01 01:03:25;;;;;;;11.63;8.35;;;11.70;99.90;;;;;;7301472;32;20107;-57
2023/10/01 01:07:28;;;;;;;12.35;6.97;;;11.70;99.90;;;;;;7302280;32;20586;-58
2023/10/01 01:11:30;;;;;;;11.43;7.07;;;11.80;99.90;;;;;;7301504;32;20139;-57
2023/10/01 01:15:34;;;;;;;14.10;7.37;;;11.80;99.90;;;;;;7301389;32;20277;-56
2023/10/01 01:19:36;;;;;;;11.82;7.57;;;11.70;99.90;;;;;;7294961;32;20161;-56
2023/10/01 01:23:41;;;;;;;14.00;8.10;;;11.70;99.90;;;;;;7292316;32;20128;-56
2023/10/01 01:27:43;;;;;;;11.48;7.45;;;11.70;99.90;;;;;;7299439;32;20263;-58
2023/10/01 01:31:45;;;;;;;11.18;7.37;;;11.70;99.90;;;;;;7300514;32;20169;-57
2023/10/01 01:35:49;;;;;;;11.10;7.32;;;11.60;99.90;;;;;;7300048;32;20220;-57
2023/10/01 01:39:51;;;;;;;10.75;7.40;;;11.60;99.90;;;;;;7295318;32;20184;-57
2023/10/01 01:43:54;;;;;;;10.98;6.87;;;11.60;99.90;;;;;;7295610;32;20864;-57
2023/10/01 01:47:55;;;;;;;12.93;7.62;;;11.60;99.90;;;;;;7298175;32;20126;-57
2023/10/01 01:51:59;;;;;;;13.30;6.62;;;11.60;99.90;;;;;;7299237;32;20121;-59
2023/10/01 01:56:10;;;;;;;12.90;7.18;;;11.60;99.90;;;;;;7299701;32;20336;-57
2023/10/01 02:00:13;;;;;;;9.82;6.60;;;11.60;99.90;;;;;;7300635;32;20430;-56
2023/10/01 02:04:15;;;;;;;11.45;6.45;;;11.50;99.90;;;;;;7301779;32;20226;-56
2023/10/01 02:08:35;;;;;;;9.23;6.40;;;11.50;99.90;;;;;;7294655;32;20479;-56
2023/10/01 02:12:39;;;;;;;11.95;7.05;;;11.50;99.90;;;;;;7296783;32;20171;-54
2023/10/01 02:16:42;;;;;;;12.45;6.12;;;11.50;99.90;;;;;;7299499;32;20583;-57
2023/10/01 02:20:44;;;;;;;11.02;6.32;;;11.60;99.90;;;;;;7304308;32;20108;-55
2023/10/01 02:24:55;;;;;;;10.27;6.35;;;11.50;99.90;;;;;;7298549;32;20572;-55
2023/10/01 02:28:58;;;;;;;10.00;6.60;;;11.50;99.90;;;;;;7303870;32;20138;-56
2023/10/01 02:33:16;;;;;;;10.73;6.15;;;11.50;99.90;;;;;;7301918;32;20196;-55
2023/10/01 02:37:29;;;;;;;11.05;5.50;;;11.40;99.90;;;;;;7301363;32;20513;-56
2023/10/01 02:41:32;;;;;;;11.27;6.80;;;11.40;99.90;;;;;;7300929;32;20844;-56
2023/10/01 02:45:35;;;;;;;11.55;6.78;;;11.40;99.90;;;;;;7300933;32;20165;-56
2023/10/01 02:49:47;;;;;;;10.35;6.05;;;11.40;99.90;;;;;;7299121;32;20139;-56
2023/10/01 02:54:05;;;;;;;11.02;6.50;;;11.40;99.90;;;;;;7303406;32;20577;-57
2023/10/01 02:58:18;;;;;;;;;;;11.30;99.90;;;;;;7300053;32;20245;-56
2023/10/01 03:02:24;;;;;;;10.43;6.15;;;11.40;99.90;;;;;;7303234;32;20450;-57
2023/10/01 03:06:26;;;;;;;9.98;6.18;;;11.30;99.90;;;;;;7300314;32;20120;-56
2023/10/01 03:10:33;;;;;;;11.90;6.15;;;11.30;99.90;;;;;;7300803;32;20664;-56
2023/10/01 03:14:42;;;;;;;8.95;5.78;;;11.40;99.90;;;;;;7303510;32;20752;-55
2023/10/01 03:18:46;;;;;;;8.63;5.97;;;11.40;99.90;;;;;;7301115;32;20710;-55
2023/10/01 03:22:52;;;;;;;11.50;6.10;;;11.40;99.90;;;;;;7296822;32;20165;-57
2023/10/01 03:27:13;;;;;;;10.15;5.75;;;11.60;99.90;;;;;;7302381;32;20116;-56
2023/10/01 03:31:14;;;;;;;8.38;5.57;;;11.50;99.90;;;;;;7300471;32;20166;-56
2023/10/01 03:35:20;;;;;;;11.32;6.03;;;11.60;99.90;;;;;;7301472;32;20138;-56
2023/10/01 03:39:25;;;;;;;11.43;5.50;;;11.60;99.90;;;;;;7301362;32;20169;-54
2023/10/01 03:43:37;;;;;;;9.73;5.25;;;11.60;99.90;;;;;;7297015;32;20171;-56
2023/10/01 03:47:41;;;;;;;8.73;5.60;;;11.60;99.90;;;;;;7302417;32;20116;-55
2023/10/01 03:51:52;;;;;;;10.90;5.72;;;11.70;99.90;;;;;;7298405;32;20589;-56
2023/10/01 03:55:55;;;;;;;8.52;4.97;;;11.70;99.90;;;;;;7303156;32;20582;-55
2023/10/01 04:00:31;;;;;;;8.90;5.22;;;11.80;99.90;;;;;;7302254;32;20168;-54
2023/10/01 04:04:20;;;;;;;9.18;5.70;;;11.80;99.90;;;;;;7295860;32;20131;-55
2023/10/01 04:08:23;;;;;;;9.07;5.20;;;11.80;99.90;;;;;;7291721;32;20285;-56
2023/10/01 04:12:32;;;;;;;10.02;4.72;;;11.90;99.90;;;;;;7299324;32;20130;-54
2023/10/01 04:16:34;;;;;;;8.55;5.10;;;12.00;99.90;;;;;;7297682;32;20211;-57
2023/10/01 04:20:37;;;;;;;10.20;5.53;;;12.00;99.90;;;;;;7300221;32;20138;-55
2023/10/01 04:24:38;;;;;;;8.93;5.00;;;12.00;99.90;;;;;;7299239;32;20162;-57
2023/10/01 04:28:44;;;;;;;7.78;5.07;;;11.90;99.90;;;;;;7294656;32;20124;-55
2023/10/01 04:32:47;;;;;;;7.72;4.82;;;12.00;99.90;;;;;;7297723;32;20246;-57
2023/10/01 04:36:53;;;;;;;6.93;4.43;;;12.00;99.90;;;;;;7297384;32;20143;-56
2023/10/01 04:40:55;;;;;;;9.95;5.25;;;11.90;99.90;;;;;;7297800;32;20123;-57
2023/10/01 04:44:57;;;;;;;9.20;4.82;;;11.90;99.90;;;;;;7298771;32;20168;-55
2023/10/01 04:49:07;;;;;;;10.55;5.37;;;11.80;99.90;;;;;;7301933;32;20205;-55
2023/10/01 04:53:23;;;;;;;9.25;5.93;;;11.80;99.90;;;;;;7294796;32;20126;-55
2023/10/01 04:57:25;;;;;;;8.18;4.62;;;11.80;99.90;;;;;;7287177;32;20207;-55
2023/10/01 05:01:28;;;;;;;9.93;4.90;;;11.70;99.90;;;;;;7298794;32;20115;-56
2023/10/01 05:05:33;;;;;;;9.18;5.22;;;11.70;99.90;;;;;;7299209;32;20133;-55
2023/10/01 05:09:36;;;;;;;10.13;4.78;;;11.70;99.90;;;;;;7300167;32;20128;-56
2023/10/01 05:13:42;;;;;;;9.65;5.47;;;11.70;99.90;;;;;;7299634;32;20238;-55
2023/10/01 05:17:44;;;;;;;9.63;5.35;;;11.60;99.90;;;;;;7300670;32;20229;-56
2023/10/01 05:21:47;;;;;;;7.32;4.82;;;11.70;99.90;;;;;;7301210;32;20506;-55
2023/10/01 05:25:50;;;;;;;10.27;4.50;;;11.60;99.90;;;;;;7302275;32;20104;-56
2023/10/01 05:29:52;;;;;;;10.65;4.95;;;11.60;99.90;;;;;;7298655;32;20276;-56
2023/10/01 05:33:56;;;;;;;8.32;4.43;;;11.70;99.90;;;;;;7296539;32;20176;-57
2023/10/01 05:37:58;;;;;;;12.43;4.97;;;11.60;99.90;;;;;;7295501;32;20225;-56
2023/10/01 05:42:00;;;;;;;9.95;4.78;;;11.60;99.90;;;;;;7301400;32;20162;-55
2023/10/01 05:46:02;;;;;;;8.57;4.55;;;11.60;99.90;;;;;;7294341;32;20129;-55
2023/10/01 05:50:08;;;;;;;7.78;4.03;;;11.60;99.90;;;;;;7297843;32;20228;-55
2023/10/01 05:54:14;;;;;;;7.70;3.97;;;11.60;99.90;;;;;;7298853;32;20168;-55
2023/10/01 05:58:19;;;;;;;7.60;4.72;;;11.60;99.90;;;;;;7292916;32;20175;-56
2023/10/01 06:02:41;;;;;;;8.85;4.60;;;11.60;99.90;;;;;;7297848;32;20210;-54
2023/10/01 06:06:45;;;;;;;10.00;4.05;;;11.70;99.90;;;;;;7291706;32;20104;-54
2023/10/01 06:11:04;;;;;;;9.38;4.97;;;11.70;99.90;;;;;;7298054;32;20134;-55
2023/10/01 06:15:11;;;;;;;6.87;4.37;;;11.70;99.90;;;;;;7297327;32;20199;-54
2023/10/01 06:19:14;;;;;;;7.87;4.50;;;11.80;99.90;;;;;;7292648;32;20195;-55
2023/10/01 06:23:15;;;;;;;11.48;4.97;;;11.80;99.90;;;;;;7296240;32;20344;-54
2023/10/01 06:27:18;;;;;;;10.40;4.25;;;11.90;99.90;;;;;;7299569;32;20189;-54
2023/10/01 06:31:20;;;;;;;9.43;4.90;;;11.90;99.90;;;;;;7292113;32;20176;-55
2023/10/01 06:35:23;;;;;;;9.88;4.90;;;12.00;99.90;;;;;;7295710;32;20215;-56
2023/10/01 06:39:26;;;;;;;8.38;4.47;;;12.00;99.90;;;;;;7293078;32;20541;-57
2023/10/01 06:43:28;;;;;;;10.07;4.82;;;12.10;99.90;;;;;;7295975;32;20172;-57
2023/10/01 06:47:30;;;;;;;10.02;4.93;;;12.10;99.90;;;;;;7296187;32;20134;-57
2023/10/01 06:51:43;;;;;;;8.50;4.65;;;12.20;99.90;;;;;;7300501;32;20454;-58
2023/10/01 06:55:47;;;;;;;8.07;4.62;;;12.30;99.90;;;;;;7299539;32;20123;-55
2023/10/01 06:59:49;;;;;;;8.52;4.28;;;12.30;99.90;;;;;;7302567;32;20340;-56
2023/10/01 07:03:51;;;;;;;9.27;4.43;;;12.40;99.90;;;;;;7296592;32;20459;-54
2023/10/01 07:07:52;;;;;;;12.70;4.78;;;12.50;99.90;;;;;;7300631;32;20147;-55
2023/10/01 07:11:56;;;;;;;9.88;5.10;;;12.60;99.90;;;;;;7299444;32;20126;-56
2023/10/01 07:15:59;;;;;;;8.93;4.35;;;12.70;99.90;;;;;;7291733;32;20181;-56
2023/10/01 07:20:00;;;;;;;12.32;4.70;;;12.70;99.90;;;;;;7301121;32;20116;-56
2023/10/01 07:24:04;;;;;;;9.25;4.93;;;12.80;99.90;;;;;;7291781;32;20111;-55
2023/10/01 07:28:07;;;;;;;9.35;4.60;;;12.80;99.90;;;;;;7299285;32;20862;-55
2023/10/01 07:32:12;;;;;;;9.85;4.90;;;12.90;99.90;;;;;;7300730;32;20462;-56
2023/10/01 07:36:17;;;;;;;10.27;4.60;;;13.00;99.90;;;;;;7296403;32;20201;-56
2023/10/01 07:40:19;;;;;;;10.23;4.72;;;13.10;99.90;;;;;;7299715;32;20135;-56
2023/10/01 07:44:23;;;;;;;9.20;5.18;;;13.20;99.90;;;;;;7299818;32;20161;-56
2023/10/01 07:48:27;;;;;;;8.82;4.57;;;13.30;99.90;;;;;;7299035;32;20791;-56
2023/10/01 07:52:36;;;;;;;11.88;4.80;;;13.40;99.90;;;;;;7299750;32;20139;-56
2023/10/01 07:56:48;;;;;;;9.05;5.22;;;13.50;99.90;;;;;;7297496;32;20131;-56
2023/10/01 08:00:59;;;;;;;12.13;4.82;;;13.60;99.90;;;;;;7298245;32;20158;-56
2023/10/01 08:05:08;;;;;;;11.77;4.75;;;13.70;99.90;;;;;;7294690;32;20368;-56
2023/10/01 08:09:12;;;;;;;11.90;4.90;;;13.90;99.90;;;;;;7299518;32;20850;-55
2023/10/01 08:13:28;;;;;;;9.90;4.35;;;14.00;99.90;;;;;;7302723;32;20690;-56
2023/10/01 08:17:32;;;;;;;11.32;5.10;;;14.20;99.90;;;;;;7295353;32;20202;-57
2023/10/01 08:21:37;;;;;;;11.30;4.90;;;14.30;99.90;;;;;;7298067;32;20162;-56
2023/10/01 08:25:42;;;;;;;9.38;4.47;;;14.30;99.90;;;;;;7296413;32;20128;-56
2023/10/01 08:30:17;;;;;;;7.97;4.40;;;14.50;99.90;;;;;;7297796;32;20117;-56
2023/10/01 08:34:22;;;;;;;8.50;4.55;;;14.80;99.90;;;;;;7294568;32;20104;-56
2023/10/01 08:38:25;;;;;;;9.70;4.55;;;15.30;99.90;;;;;;7295152;32;20533;-56
2023/10/01 08:42:29;;;;;;;15.40;4.95;;;15.50;99.90;;;;;;7302777;32;20336;-56
2023/10/01 08:46:31;;;;;;;12.52;5.03;;;15.60;99.90;;;;;;7295937;32;20153;-56
2023/10/01 08:50:38;;;;;;;11.38;5.07;;;15.80;99.90;;;;;;7295367;32;20108;-57
2023/10/01 08:54:43;;;;;;;13.20;4.85;;;16.00;99.90;;;;;;7299147;32;20149;-56
2023/10/01 08:58:59;;;;;;;12.00;4.85;;;16.30;99.90;;;;;;7296169;32;20489;-56
2023/10/01 09:03:10;;;;;;;11.48;5.65;;;16.70;99.90;;;;;;7298940;32;20130;-57
2023/10/01 09:07:19;;;;;;;11.32;5.20;;;16.70;99.90;;;;;;7296894;32;20104;-58
2023/10/01 09:11:47;;;;;;;10.18;5.35;;;17.00;99.90;;;;;;7301628;32;20647;-56
2023/10/01 09:15:54;;;;;;;;;;;17.10;99.90;;;;;;7293588;32;20115;-56
2023/10/01 09:20:05;;;;;;;10.95;5.30;;;17.30;99.90;;;;;;7300741;32;20002;-56
2023/10/01 09:24:38;;;;;;;12.35;6.03;;;17.60;99.90;;;;;;7299621;32;20111;-56
2023/10/01 09:28:39;;;;;;;11.85;5.57;;;17.90;99.90;;;;;;7298293;32;20679;-55
2023/10/01 09:32:54;;;;;;;9.85;5.47;;;18.60;99.90;;;;;;7295923;32;20123;-55
2023/10/01 09:36:56;;;;;;;12.07;5.43;;;19.50;99.90;;;;;;7295088;32;20447;-54
2023/10/01 09:41:00;;;;;;;13.02;5.57;;;20.50;99.90;;;;;;7296123;32;20248;-54
2023/10/01 09:45:09;;;;;;;9.95;5.72;;;21.30;99.90;;;;;;7295836;32;20124;-55
2023/10/01 09:49:26;;;;;;;9.75;5.43;;;22.30;99.90;;;;;;7298356;32;20234;-54
2023/10/01 09:53:31;;;;;;;;;;;23.50;99.90;;;;;;7295589;32;20137;-54
2023/10/01 09:57:34;;;;;;;12.90;6.32;;;24.90;99.90;;;;;;7296602;32;20025;-54
2023/10/01 10:01:38;;;;;;;11.30;5.40;;;25.60;99.90;;;;;;7295068;32;20600;-54
2023/10/01 10:05:40;;;;;;;10.75;5.82;;;25.60;99.90;;;;;;7294316;32;20117;-57
2023/10/01 10:09:45;;;;;;;11.73;6.07;;;25.30;99.90;;;;;;7298407;32;20291;-57
2023/10/01 10:13:48;;;;;;;11.85;5.80;;;25.30;99.90;;;;;;7292908;32;20265;-57
2023/10/01 10:17:57;;;;;;;12.35;6.40;;;24.90;99.90;;;;;;7297847;32;20453;-58
2023/10/01 10:26:12;;;;;;;11.93;6.47;;;23.30;99.90;;;;;;7298148;32;20169;-57
2023/10/01 10:30:14;;;;;;;10.80;5.72;;;22.60;99.90;;;;;;7292927;32;20892;-57
2023/10/01 10:34:26;;;;;;;11.77;5.90;;;22.10;99.90;;;;;;7303076;32;20514;-58
2023/10/01 10:38:51;;;;;;;12.40;5.57;;;21.80;99.90;;;;;;7304253;32;20528;-56
2023/10/01 10:42:57;;;;;;;13.90;5.65;;;21.40;99.90;;;;;;7299299;32;20142;-57
2023/10/01 10:47:04;;;;;;;12.65;5.95;;;21.20;99.90;;;;;;7303302;32;20165;-56
2023/10/01 10:51:06;;;;;;;14.20;6.28;;;20.90;99.90;;;;;;7292030;32;20166;-56
2023/10/01 10:55:24;;;;;;;17.25;6.65;;;20.80;99.90;;;;;;7303289;32;20124;-57
2023/10/01 10:59:28;;;;;;;11.07;6.15;;;20.60;99.90;;;;;;7299851;32;20422;-56
2023/10/01 11:03:41;;;;;;;13.45;5.70;;;20.60;99.90;;;;;;7300783;32;20250;-56
2023/10/01 11:07:58;;;;;;;13.38;6.00;;;20.60;99.90;;;;;;7298940;32;20448;-57
2023/10/01 11:12:02;;;;;;;13.07;5.95;;;20.60;99.90;;;;;;7300035;32;20108;-56
2023/10/01 11:16:14;;;;;;;15.60;6.35;;;20.60;99.90;;;;;;7295573;32;20134;-57
2023/10/01 11:20:22;;;;;;;13.05;6.65;;;20.60;99.90;;;;;;7299687;32;20108;-57
2023/10/01 11:24:30;;;;;;;11.88;6.03;;;20.60;99.90;;;;;;7298125;32;20485;-55
2023/10/01 11:28:41;;;;;;;15.48;6.78;;;20.50;99.90;;;;;;7301554;32;20489;-54
2023/10/01 11:33:12;;;;;;;10.60;5.80;;;20.60;99.90;;;;;;7301086;32;20234;-55
2023/10/01 11:37:19;;;;;;;12.82;6.55;;;20.80;99.90;;;;;;7304504;32;20112;-55
2023/10/01 11:41:38;;;;;;;11.40;5.95;;;20.90;99.90;;;;;;7304265;32;20719;-53
2023/10/01 11:45:46;;;;;;;14.98;6.87;;;21.10;99.90;;;;;;7302133;32;20561;-55
2023/10/01 11:50:07;;;;;;;15.50;7.10;;;21.10;99.90;;;;;;7299762;32;20112;-55
2023/10/01 11:54:09;;;;;;;13.65;6.60;;;21.60;99.90;;;;;;7293277;32;20202;-55
2023/10/01 11:58:16;;;;;;;15.90;7.10;;;21.80;99.90;;;;;;7290056;32;20107;-55
2023/10/01 12:02:21;;;;;;;14.68;7.65;;;22.00;99.90;;;;;;7298956;32;20104;-54
2023/10/01 12:06:34;;;;;;;16.27;7.40;;;22.00;99.90;;;;;;7302098;32;20104;-55
2023/10/01 12:10:36;;;;;;;15.57;7.30;;;22.10;99.90;;;;;;7299374;32;20179;-55
2023/10/01 12:19:22;;;;;;;13.95;6.87;;;22.10;99.90;;;;;;7298305;32;20226;-56
2023/10/01 12:23:26;;;;;;;14.95;6.75;;;22.10;99.90;;;;;;7296795;32;20108;-58
2023/10/01 12:27:38;;;;;;;13.05;6.65;;;22.10;99.90;;;;;;7298574;32;20302;-53
2023/10/01 12:31:40;;;;;;;13.20;6.62;;;22.20;99.90;;;;;;7299538;32;20120;-56
2023/10/01 12:35:42;;;;;;;15.88;7.65;;;22.30;99.90;;;;;;7302030;32;20136;-56
2023/10/01 12:39:44;;;;;;;14.93;6.72;;;22.20;99.90;;;;;;7299524;32;20538;-56
2023/10/01 12:43:46;;;;;;;15.98;7.47;;;22.40;99.90;;;;;;7295671;32;20206;-57
2023/10/01 12:47:51;;;;;;;16.87;8.07;;;22.50;99.90;;;;;;7303316;32;20134;-57
2023/10/01 12:51:54;;;;;;;14.35;7.70;;;22.60;99.90;;;;;;7296687;32;20130;-56
2023/10/01 12:55:56;;;;;;;16.45;7.55;;;22.60;99.90;;;;;;7293408;32;20441;-56
2023/10/01 13:00:23;;;;;;;16.90;7.53;;;22.60;99.90;;;;;;7296535;32;20119;-57
2023/10/01 13:04:25;;;;;;;15.77;8.07;;;22.50;99.90;;;;;;7295433;32;20135;-57
2023/10/01 13:08:27;;;;;;;17.80;8.15;;;22.60;99.90;;;;;;7300203;32;20227;-57
2023/10/01 13:12:31;;;;;;;17.33;7.95;;;22.70;99.90;;;;;;7307652;32;20242;-56
2023/10/01 13:16:33;;;;;;;17.17;7.85;;;22.80;99.90;;;;;;7301449;32;20241;-56
2023/10/01 13:24:56;;;;;;;17.52;8.05;;;23.00;99.90;;;;;;7299458;32;20208;-56
2023/10/01 13:29:00;;;;;;;14.70;8.13;;;22.90;99.90;;;;;;7292422;32;20112;-57
2023/10/01 13:33:14;;;;;;;16.08;8.55;;;23.00;99.90;;;;;;7294508;32;20280;-57
2023/10/01 14:11:54;;;;;;;17.42;9.20;;;23.40;99.90;;;;;;7301451;32;20217;-56
2023/10/01 14:16:11;;;;;;;18.23;10.00;;;23.40;99.90;;;;;;7299569;32;20127;-56
2023/10/01 14:20:15;;;;;;;20.52;10.25;;;23.40;99.90;;;;;;7298019;32;20167;-55
2023/10/01 14:24:23;;;;;;;18.58;9.95;;;23.40;99.90;;;;;;7302429;32;20130;-56
2023/10/01 14:28:27;;;;;;;20.15;10.57;;;23.40;99.90;;;;;;7297181;32;20295;-55
2023/10/01 14:32:35;;;;;;;21.20;10.52;;;23.50;99.90;;;;;;7298993;32;20132;-56
2023/10/01 14:36:40;;;;;;;18.23;10.13;;;23.50;99.90;;;;;;7300737;32;20199;-55
2023/10/01 14:40:44;;;;;;;18.70;10.68;;;23.50;99.90;;;;;;7304615;32;20107;-55
2023/10/01 14:44:46;;;;;;;18.67;10.57;;;23.50;99.90;;;;;;7306107;32;20116;-55
2023/10/01 14:48:48;;;;;;;19.02;10.85;;;23.40;99.90;;;;;;7298879;32;20206;-56
2023/10/01 14:52:50;;;;;;;19.25;10.93;;;23.30;99.90;;;;;;7298954;32;20183;-56
2023/10/01 14:56:55;;;;;;;20.67;11.20;;;23.40;99.90;;;;;;7291374;32;20201;-56
2023/10/01 15:00:59;;;;;;;16.53;9.53;;;23.40;99.90;;;;;;7302799;32;20141;-56
2023/10/01 15:05:09;;;;;;;16.87;9.23;;;23.30;99.90;;;;;;7295162;32;20230;-57
2023/10/01 15:09:13;;;;;;;18.92;10.50;;;23.30;99.90;;;;;;7301353;32;20246;-56
2023/10/01 15:13:15;;;;;;;17.87;10.25;;;23.40;99.90;;;;;;7297803;32;20505;-56
2023/10/01 15:17:25;;;;;;;17.17;9.77;;;23.30;99.90;;;;;;7296991;32;20104;-56
2023/10/01 15:21:31;;;;;;;19.33;10.23;;;23.40;99.90;;;;;;7297339;32;20226;-56
2023/10/01 15:25:32;;;;;;;21.55;11.05;;;23.30;99.90;;;;;;7299313;32;20323;-56
2023/10/01 15:29:35;;;;;;;19.33;9.93;;;23.30;99.90;;;;;;7301739;32;20579;-56
2023/10/01 15:33:37;;;;;;;17.80;10.02;;;23.30;99.90;;;;;;7297331;32;20583;-56
2023/10/01 15:37:38;;;;;;;18.37;9.55;;;23.20;99.90;;;;;;7297320;32;20229;-56
2023/10/01 15:41:42;;;;;;;18.58;10.35;;;22.90;99.90;;;;;;7299068;32;20219;-56
2023/10/01 15:45:44;;;;;;;20.02;10.00;;;22.80;99.90;;;;;;7297408;32;20349;-55
2023/10/01 15:49:46;;;;;;;20.20;10.77;;;22.60;99.90;;;;;;7300663;32;20107;-55
2023/10/01 15:53:48;;;;;;;19.85;9.98;;;22.50;99.90;;;;;;7298492;32;20713;-55
2023/10/01 15:57:55;;;;;;;19.67;10.73;;;22.30;99.90;;;;;;7295487;32;20108;-55
2023/10/01 16:01:59;;;;;;;17.37;9.40;;;22.10;99.90;;;;;;7301164;32;20305;-55
2023/10/01 16:06:08;;;;;;;16.80;10.30;;;22.10;99.90;;;;;;7300316;32;20116;-55
2023/10/01 16:10:11;;;;;;;20.50;10.43;;;21.90;99.90;;;;;;7297775;32;20111;-55
2023/10/01 16:14:26;;;;;;;18.55;9.95;;;21.70;99.90;;;;;;7302135;32;20364;-55
2023/10/01 16:18:29;;;;;;;17.12;9.98;;;21.50;99.90;;;;;;7298975;32;20212;-55
2023/10/01 16:22:30;;;;;;;18.55;10.00;;;21.40;99.90;;;;;;7297598;32;20156;-55
2023/10/01 16:26:32;;;;;;;22.20;10.18;;;21.20;99.90;;;;;;7292346;32;20178;-55
2023/10/01 16:30:34;;;;;;;18.60;9.98;;;21.00;99.90;;;;;;7296395;32;20142;-55
2023/10/01 16:34:41;;;;;;;17.73;9.77;;;20.90;99.90;;;;;;7298474;32;20104;-56
2023/10/01 16:38:51;;;;;;;19.15;10.00;;;20.70;99.90;;;;;;7295082;32;20628;-57
2023/10/01 16:42:55;;;;;;;19.05;10.40;;;20.50;99.90;;;;;;7301724;32;20508;-56
2023/10/01 16:47:01;;;;;;;20.12;10.57;;;20.40;99.90;;;;;;7299208;32;20108;-56
2023/10/01 16:51:17;;;;;;;17.87;9.27;;;20.00;99.90;;;;;;7296083;32;20177;-54
2023/10/01 16:55:22;;;;;;;18.30;10.13;;;19.70;99.90;;;;;;7296416;32;20185;-56
2023/10/01 16:59:24;;;;;;;20.45;9.95;;;19.50;99.90;;;;;;7293176;32;20248;-57
2023/10/01 17:03:27;;;;;;;17.73;9.70;;;19.30;99.90;;;;;;7293414;32;20119;-57
2023/10/01 17:07:28;;;;;;;23.80;10.02;;;19.00;99.90;;;;;;7299371;32;20202;-59
2023/10/01 17:11:30;;;;;;;17.23;9.77;;;18.90;99.90;;;;;;7295023;32;20134;-57
2023/10/01 17:15:43;;;;;;;19.98;10.10;;;18.70;99.90;;;;;;7300402;32;20177;-57
2023/10/01 17:19:46;;;;;;;16.60;8.57;;;18.50;99.90;;;;;;7303154;32;20134;-58
2023/10/01 17:23:53;;;;;;;19.52;9.27;;;18.40;99.90;;;;;;7298640;32;20123;-58
2023/10/01 17:27:59;;;;;;;;;;;18.10;99.90;;;;;;7297168;32;20111;-57
2023/10/01 17:32:07;;;;;;;17.00;8.95;;;17.90;99.90;;;;;;7296182;32;20059;-56
2023/10/01 17:36:12;;;;;;;19.15;9.80;;;17.70;99.90;;;;;;7294095;32;20577;-57
2023/10/01 17:40:17;;;;;;;19.83;9.98;;;17.50;99.90;;;;;;7298587;32;20111;-56
2023/10/01 17:44:24;;;;;;;19.08;9.75;;;17.40;99.90;;;;;;7291692;32;20325;-57
2023/10/01 17:48:28;;;;;;;19.23;9.55;;;17.30;99.90;;;;;;7291668;32;20124;-56
2023/10/01 17:52:34;;;;;;;19.83;9.65;;;17.20;99.90;;;;;;7297290;32;20298;-57
2023/10/01 17:56:43;;;;;;;17.85;9.30;;;17.10;99.90;;;;;;7301206;32;20234;-57
2023/10/01 18:00:48;;;;;;;18.80;10.15;;;16.90;99.90;;;;;;7292061;32;20175;-57
2023/10/01 18:05:01;;;;;;;17.73;9.05;;;16.90;99.90;;;;;;7299451;32;20179;-56
2023/10/01 18:09:13;;;;;;;19.70;8.95;;;16.80;99.90;;;;;;7295897;32;20115;-56
2023/10/01 18:13:22;;;;;;;16.65;9.10;;;16.80;99.90;;;;;;7289822;32;20305;-57
2023/10/01 18:17:28;;;;;;;26.27;10.02;;;16.70;99.90;;;;;;7293499;32;20138;-55
2023/10/01 18:21:35;;;;;;;17.17;8.80;;;16.60;99.90;;;;;;7290655;32;20249;-56
2023/10/01 18:25:40;;;;;;;17.17;8.50;;;16.50;99.90;;;;;;7298867;32;20136;-56
2023/10/01 18:29:42;;;;;;;16.90;8.13;;;16.50;99.90;;;;;;7299317;32;20328;-55
2023/10/01 18:33:45;;;;;;;16.52;8.77;;;16.40;99.90;;;;;;7299128;32;21033;-56
2023/10/01 18:37:52;;;;;;;18.85;8.75;;;16.30;99.90;;;;;;7295090;32;20115;-56
2023/10/01 18:41:57;;;;;;;20.17;9.07;;;16.20;99.90;;;;;;7308504;32;20122;-55
2023/10/01 18:46:03;;;;;;;18.27;8.57;;;16.10;99.90;;;;;;7297600;32;20128;-55
2023/10/01 18:50:05;;;;;;;18.70;8.98;;;16.00;99.90;;;;;;7297169;32;20490;-57
2023/10/01 18:54:07;;;;;;;19.08;8.50;;;16.00;99.90;;;;;;7297343;32;20158;-56
2023/10/01 18:58:17;;;;;;;17.05;8.20;;;15.90;99.90;;;;;;7301590;32;20303;-56
2023/10/01 19:02:22;;;;;;;18.73;8.75;;;15.80;99.90;;;;;;7303565;32;20213;-56
2023/10/01 19:06:25;;;;;;;15.60;8.02;;;15.80;99.90;;;;;;7302748;32;20131;-56
2023/10/01 19:10:30;;;;;;;16.83;9.13;;;15.70;99.90;;;;;;7304497;32;20759;-56
2023/10/01 19:14:37;;;;;;;15.55;8.82;;;15.60;99.90;;;;;;7300069;32;20183;-55
2023/10/01 19:18:38;;;;;;;16.50;8.17;;;15.50;99.90;;;;;;7303293;32;20213;-57
2023/10/01 19:22:42;;;;;;;19.55;7.85;;;15.50;99.90;;;;;;7302004;32;20678;-55
2023/10/01 19:26:53;;;;;;;18.87;9.00;;;15.50;99.90;;;;;;7300575;32;20116;-56
2023/10/01 19:30:56;;;;;;;20.80;8.98;;;15.40;99.90;;;;;;7302764;32;20758;-56
2023/10/01 19:35:01;;;;;;;18.83;8.68;;;15.40;99.90;;;;;;7300604;32;20170;-55
2023/10/01 19:39:03;;;;;;;20.77;8.50;;;15.30;99.90;;;;;;7298996;32;20165;-56
2023/10/01 19:43:06;;;;;;;17.55;8.18;;;15.20;99.90;;;;;;7304020;32;20573;-55
2023/10/01 19:47:15;;;;;;;26.20;11.65;;;15.20;99.90;;;;;;7297604;32;20136;-56
2023/10/01 19:51:22;;;;;;;35.30;15.02;;;15.10;99.90;;;;;;7301594;32;20187;-57
2023/10/01 19:55:24;;;;;;;;;;;15.10;99.90;;;;;;7298293;32;20230;-56
2023/10/01 19:59:31;;;;;;;31.58;15.68;;;15.00;99.90;;;;;;7300767;32;20056;-55
2023/10/01 20:03:35;;;;;;;31.80;14.23;;;14.90;99.90;;;;;;7301250;32;20203;-55
2023/10/01 20:07:37;;;;;;;27.08;14.50;;;14.90;99.90;;;;;;7300781;32;20111;-56
2023/10/01 20:11:39;;;;;;;22.62;13.07;;;14.90;99.90;;;;;;7296921;32;20278;-55
2023/10/01 20:15:45;;;;;;;31.60;13.50;;;14.80;99.90;;;;;;7302962;32;20494;-56
2023/10/01 20:19:50;;;;;;;27.62;12.50;;;14.80;99.90;;;;;;7295783;32;20171;-55
2023/10/01 20:23:51;;;;;;;20.67;10.93;;;14.70;99.90;;;;;;7294739;32;20131;-55
2023/10/01 20:27:57;;;;;;;19.17;9.10;;;14.70;99.90;;;;;;7298169;32;20136;-55
2023/10/01 20:32:02;;;;;;;16.80;8.73;;;14.70;99.90;;;;;;7294185;32;20217;-57
2023/10/01 20:36:05;;;;;;;18.52;8.63;;;14.60;99.90;;;;;;7298448;32;20183;-57
2023/10/01 20:40:12;;;;;;;17.05;7.80;;;14.60;99.90;;;;;;7295858;32;20241;-58
2023/10/01 20:44:14;;;;;;;;;;;14.60;99.90;;;;;;7293423;32;20135;-55
2023/10/01 20:48:36;;;;;;;21.23;8.13;;;14.50;99.90;;;;;;7299288;32;20019;-56
2023/10/01 20:52:37;;;;;;;16.35;7.32;;;14.50;99.90;;;;;;7301007;32;20131;-57
2023/10/01 20:56:43;;;;;;;16.80;7.87;;;14.50;99.90;;;;;;7300781;32;20207;-56
2023/10/01 21:00:50;;;;;;;14.82;7.43;;;14.50;99.90;;;;;;7303132;32;20130;-56
2023/10/01 21:04:52;;;;;;;17.60;7.80;;;14.50;99.90;;;;;;7297020;32;20127;-57
2023/10/01 21:08:54;;;;;;;18.15;8.48;;;14.50;99.90;;;;;;7289185;32;20108;-58
2023/10/01 21:12:58;;;;;;;14.95;7.93;;;14.70;99.90;;;;;;7300027;32;20108;-57
2023/10/01 21:17:09;;;;;;;17.15;8.68;;;14.80;99.90;;;;;;7298127;32;20586;-56
2023/10/01 21:21:11;;;;;;;14.55;8.10;;;14.90;99.90;;;;;;7296538;32;20246;-56
2023/10/01 21:25:23;;;;;;;16.48;7.80;;;14.90;99.90;;;;;;7299230;32;20112;-57
2023/10/01 21:29:34;;;;;;;13.85;7.28;;;15.00;99.90;;;;;;7294583;32;20109;-58
2023/10/01 21:33:36;;;;;;;14.77;7.75;;;15.00;99.90;;;;;;7301767;32;20290;-57
2023/10/01 21:37:37;;;;;;;17.50;7.87;;;15.00;99.90;;;;;;7297446;32;20112;-57
2023/10/01 21:41:43;;;;;;;15.25;7.47;;;14.90;99.90;;;;;;7290340;32;20594;-57
2023/10/01 21:45:58;;;;;;;15.98;7.78;;;14.80;99.90;;;;;;7297868;32;20593;-56
2023/10/01 21:50:01;;;;;;;17.20;8.45;;;14.80;99.90;;;;;;7297315;32;20268;-57
2023/10/01 21:54:02;;;;;;;23.48;11.18;;;14.60;99.90;;;;;;7297222;32;20112;-57